sensor_id;sensor_type;location;lat;lon;timestamp;P1;durP1;ratioP1;P2;durP2;ratioP2
13102;SDS011;52970;46.752;17.108;2022-08-19T00:01:18;5.30;;;2.75;;
13102;SDS011;52970;46.752;17.108;2022-08-19T00:03:43;8.75;;;2.55;;
13102;SDS011;52970;46.752;17.108;2022-08-19T00:06:08;4.65;;;2.55;;
13102;SDS011;52970;46.752;17.108;2022-08-19T00:08:34;6.05;;;2.47;;
13102;SDS011;52970;46.752;17.108;2022-08-19T00:11:00;4.93;;;2.47;;
13102;SDS011;52970;46.752;17.108;2022-08-19T00:13:25;6.30;;;3.10;;
13102;SDS011;52970;46.752;17.108;2022-08-19T00:15:51;9.40;;;2.72;;
13102;SDS011;52970;46.752;17.108;2022-08-19T00:18:17;5.32;;;2.58;;
13102;SDS011;52970;46.752;17.108;2022-08-19T00:20:42;3.95;;;2.70;;
13102;SDS011;52970;46.752;17.108;2022-08-19T00:23:07;12.73;;;2.95;;
13102;SDS011;52970;46.752;17.108;2022-08-19T00:25:32;8.80;;;2.65;;
13102;SDS011;52970;46.752;17.108;2022-08-19T00:27:58;4.97;;;2.70;;
13102;SDS011;52970;46.752;17.108;2022-08-19T00:30:24;4.80;;;2.80;;
13102;SDS011;52970;46.752;17.108;2022-08-19T00:32:49;9.77;;;2.85;;
13102;SDS011;52970;46.752;17.108;2022-08-19T00:35:15;4.47;;;2.30;;
13102;SDS011;52970;46.752;17.108;2022-08-19T00:37:41;4.78;;;2.35;;
13102;SDS011;52970;46.752;17.108;2022-08-19T00:40:08;5.00;;;2.60;;
13102;SDS011;52970;46.752;17.108;2022-08-19T00:42:34;5.28;;;2.78;;
13102;SDS011;52970;46.752;17.108;2022-08-19T00:44:59;6.90;;;2.67;;
13102;SDS011;52970;46.752;17.108;2022-08-19T00:47:24;5.22;;;2.70;;
13102;SDS011;52970;46.752;17.108;2022-08-19T00:49:52;5.03;;;2.80;;
13102;SDS011;52970;46.752;17.108;2022-08-19T00:52:21;5.85;;;2.88;;
13102;SDS011;52970;46.752;17.108;2022-08-19T00:54:47;7.13;;;2.83;;
13102;SDS011;52970;46.752;17.108;2022-08-19T00:57:15;8.30;;;3.17;;
13102;SDS011;52970;46.752;17.108;2022-08-19T00:59:42;4.18;;;2.97;;
13102;SDS011;52970;46.752;17.108;2022-08-19T01:02:10;10.93;;;3.50;;
13102;SDS011;52970;46.752;17.108;2022-08-19T01:04:35;5.85;;;2.33;;
13102;SDS011;52970;46.752;17.108;2022-08-19T01:07:01;6.22;;;3.00;;
13102;SDS011;52970;46.752;17.108;2022-08-19T01:09:26;5.15;;;2.78;;
13102;SDS011;52970;46.752;17.108;2022-08-19T01:11:51;7.80;;;2.92;;
13102;SDS011;52970;46.752;17.108;2022-08-19T01:14:17;2.80;;;2.53;;
13102;SDS011;52970;46.752;17.108;2022-08-19T01:16:43;5.22;;;2.65;;
13102;SDS011;52970;46.752;17.108;2022-08-19T01:19:18;12.02;;;3.58;;
13102;SDS011;52970;46.752;17.108;2022-08-19T01:21:51;4.80;;;2.63;;
13102;SDS011;52970;46.752;17.108;2022-08-19T01:24:17;5.00;;;2.60;;
13102;SDS011;52970;46.752;17.108;2022-08-19T01:26:45;7.07;;;2.88;;
13102;SDS011;52970;46.752;17.108;2022-08-19T01:29:10;3.97;;;2.67;;
13102;SDS011;52970;46.752;17.108;2022-08-19T01:31:36;6.68;;;2.85;;
13102;SDS011;52970;46.752;17.108;2022-08-19T01:34:03;6.03;;;3.40;;
13102;SDS011;52970;46.752;17.108;2022-08-19T01:38:54;6.35;;;2.50;;
13102;SDS011;52970;46.752;17.108;2022-08-19T01:41:20;6.18;;;2.85;;
13102;SDS011;52970;46.752;17.108;2022-08-19T01:43:47;6.13;;;2.72;;
13102;SDS011;52970;46.752;17.108;2022-08-19T01:46:12;7.43;;;2.60;;
13102;SDS011;52970;46.752;17.108;2022-08-19T01:48:39;6.38;;;2.60;;
13102;SDS011;52970;46.752;17.108;2022-08-19T01:51:05;3.38;;;2.58;;
13102;SDS011;52970;46.752;17.108;2022-08-19T01:53:30;5.90;;;2.67;;
13102;SDS011;52970;46.752;17.108;2022-08-19T01:55:56;6.57;;;2.70;;
13102;SDS011;52970;46.752;17.108;2022-08-19T01:58:23;5.25;;;3.05;;
13102;SDS011;52970;46.752;17.108;2022-08-19T02:00:49;6.88;;;2.70;;
13102;SDS011;52970;46.752;17.108;2022-08-19T02:03:15;7.10;;;2.63;;
13102;SDS011;52970;46.752;17.108;2022-08-19T02:05:41;5.43;;;2.53;;
13102;SDS011;52970;46.752;17.108;2022-08-19T02:08:07;3.13;;;2.22;;
13102;SDS011;52970;46.752;17.108;2022-08-19T02:10:32;5.95;;;2.80;;
13102;SDS011;52970;46.752;17.108;2022-08-19T02:12:58;9.15;;;3.00;;
13102;SDS011;52970;46.752;17.108;2022-08-19T02:15:23;4.38;;;2.42;;
13102;SDS011;52970;46.752;17.108;2022-08-19T02:17:50;8.38;;;3.47;;
13102;SDS011;52970;46.752;17.108;2022-08-19T02:20:16;6.80;;;3.03;;
13102;SDS011;52970;46.752;17.108;2022-08-19T02:22:41;7.57;;;3.22;;
13102;SDS011;52970;46.752;17.108;2022-08-19T02:25:08;5.18;;;2.42;;
13102;SDS011;52970;46.752;17.108;2022-08-19T02:27:33;8.38;;;3.15;;
13102;SDS011;52970;46.752;17.108;2022-08-19T02:29:59;5.97;;;3.08;;
13102;SDS011;52970;46.752;17.108;2022-08-19T02:32:24;4.50;;;2.58;;
13102;SDS011;52970;46.752;17.108;2022-08-19T02:34:49;7.30;;;2.85;;
13102;SDS011;52970;46.752;17.108;2022-08-19T02:37:15;4.70;;;2.30;;
13102;SDS011;52970;46.752;17.108;2022-08-19T02:39:59;7.20;;;2.88;;
13102;SDS011;52970;46.752;17.108;2022-08-19T02:42:24;5.50;;;2.67;;
13102;SDS011;52970;46.752;17.108;2022-08-19T02:44:50;6.57;;;2.58;;
13102;SDS011;52970;46.752;17.108;2022-08-19T02:47:16;6.00;;;2.70;;
13102;SDS011;52970;46.752;17.108;2022-08-19T02:49:41;5.45;;;2.67;;
13102;SDS011;52970;46.752;17.108;2022-08-19T02:52:07;5.95;;;2.78;;
13102;SDS011;52970;46.752;17.108;2022-08-19T02:54:32;5.68;;;2.58;;
13102;SDS011;52970;46.752;17.108;2022-08-19T02:56:57;4.43;;;2.63;;
13102;SDS011;52970;46.752;17.108;2022-08-19T02:59:23;5.47;;;2.60;;
13102;SDS011;52970;46.752;17.108;2022-08-19T03:01:49;4.43;;;2.28;;
13102;SDS011;52970;46.752;17.108;2022-08-19T03:04:15;8.45;;;2.83;;
13102;SDS011;52970;46.752;17.108;2022-08-19T03:06:43;6.72;;;2.85;;
13102;SDS011;52970;46.752;17.108;2022-08-19T03:09:08;5.70;;;2.80;;
13102;SDS011;52970;46.752;17.108;2022-08-19T03:11:34;5.05;;;2.15;;
13102;SDS011;52970;46.752;17.108;2022-08-19T03:14:00;4.53;;;3.42;;
13102;SDS011;52970;46.752;17.108;2022-08-19T03:16:26;4.05;;;2.90;;
13102;SDS011;52970;46.752;17.108;2022-08-19T03:18:52;7.25;;;3.10;;
13102;SDS011;52970;46.752;17.108;2022-08-19T03:21:22;8.95;;;3.22;;
13102;SDS011;52970;46.752;17.108;2022-08-19T03:23:49;4.72;;;2.72;;
13102;SDS011;52970;46.752;17.108;2022-08-19T03:26:14;5.05;;;2.67;;
13102;SDS011;52970;46.752;17.108;2022-08-19T03:28:40;4.88;;;2.55;;
13102;SDS011;52970;46.752;17.108;2022-08-19T03:31:07;8.02;;;2.65;;
13102;SDS011;52970;46.752;17.108;2022-08-19T03:33:33;6.07;;;2.92;;
13102;SDS011;52970;46.752;17.108;2022-08-19T03:36:03;3.63;;;3.05;;
13102;SDS011;52970;46.752;17.108;2022-08-19T03:38:29;10.98;;;2.83;;
13102;SDS011;52970;46.752;17.108;2022-08-19T03:40:54;12.35;;;3.50;;
13102;SDS011;52970;46.752;17.108;2022-08-19T03:43:19;10.38;;;3.13;;
13102;SDS011;52970;46.752;17.108;2022-08-19T03:45:45;6.18;;;2.60;;
13102;SDS011;52970;46.752;17.108;2022-08-19T03:48:10;8.55;;;3.00;;
13102;SDS011;52970;46.752;17.108;2022-08-19T03:50:39;8.75;;;2.53;;
13102;SDS011;52970;46.752;17.108;2022-08-19T03:53:04;12.73;;;2.92;;
13102;SDS011;52970;46.752;17.108;2022-08-19T03:55:29;11.10;;;3.25;;
13102;SDS011;52970;46.752;17.108;2022-08-19T03:57:55;15.40;;;2.92;;
13102;SDS011;52970;46.752;17.108;2022-08-19T04:00:20;9.38;;;2.85;;
13102;SDS011;52970;46.752;17.108;2022-08-19T04:02:46;8.75;;;3.35;;
13102;SDS011;52970;46.752;17.108;2022-08-19T04:05:11;9.45;;;3.40;;
13102;SDS011;52970;46.752;17.108;2022-08-19T04:07:37;5.55;;;2.53;;
13102;SDS011;52970;46.752;17.108;2022-08-19T04:10:03;10.70;;;3.35;;
13102;SDS011;52970;46.752;17.108;2022-08-19T04:12:28;6.82;;;2.95;;
13102;SDS011;52970;46.752;17.108;2022-08-19T04:14:54;8.75;;;3.25;;
13102;SDS011;52970;46.752;17.108;2022-08-19T04:17:19;8.85;;;2.95;;
13102;SDS011;52970;46.752;17.108;2022-08-19T04:19:44;6.78;;;3.00;;
13102;SDS011;52970;46.752;17.108;2022-08-19T04:22:09;8.90;;;3.10;;
13102;SDS011;52970;46.752;17.108;2022-08-19T04:24:36;10.32;;;3.38;;
13102;SDS011;52970;46.752;17.108;2022-08-19T04:27:02;6.75;;;2.60;;
13102;SDS011;52970;46.752;17.108;2022-08-19T04:29:28;3.78;;;2.55;;
13102;SDS011;52970;46.752;17.108;2022-08-19T04:31:55;6.03;;;2.90;;
13102;SDS011;52970;46.752;17.108;2022-08-19T04:34:21;9.80;;;3.28;;
13102;SDS011;52970;46.752;17.108;2022-08-19T04:36:50;13.55;;;3.45;;
13102;SDS011;52970;46.752;17.108;2022-08-19T04:39:17;12.57;;;3.80;;
13102;SDS011;52970;46.752;17.108;2022-08-19T04:41:43;10.05;;;3.85;;
13102;SDS011;52970;46.752;17.108;2022-08-19T04:44:27;8.60;;;3.40;;
13102;SDS011;52970;46.752;17.108;2022-08-19T04:46:55;6.47;;;2.80;;
13102;SDS011;52970;46.752;17.108;2022-08-19T04:49:21;6.53;;;3.00;;
13102;SDS011;52970;46.752;17.108;2022-08-19T04:51:47;4.70;;;3.20;;
13102;SDS011;52970;46.752;17.108;2022-08-19T04:54:13;5.38;;;2.88;;
13102;SDS011;52970;46.752;17.108;2022-08-19T04:56:39;9.18;;;3.35;;
13102;SDS011;52970;46.752;17.108;2022-08-19T04:59:05;8.85;;;3.53;;
13102;SDS011;52970;46.752;17.108;2022-08-19T05:01:31;7.75;;;2.95;;
13102;SDS011;52970;46.752;17.108;2022-08-19T05:04:01;7.15;;;3.33;;
13102;SDS011;52970;46.752;17.108;2022-08-19T05:06:28;9.82;;;3.50;;
13102;SDS011;52970;46.752;17.108;2022-08-19T05:08:53;10.98;;;3.35;;
13102;SDS011;52970;46.752;17.108;2022-08-19T05:11:21;7.47;;;2.88;;
13102;SDS011;52970;46.752;17.108;2022-08-19T05:13:47;11.15;;;3.00;;
13102;SDS011;52970;46.752;17.108;2022-08-19T05:16:14;9.48;;;3.53;;
13102;SDS011;52970;46.752;17.108;2022-08-19T05:18:39;9.27;;;3.28;;
13102;SDS011;52970;46.752;17.108;2022-08-19T05:21:24;10.73;;;3.72;;
13102;SDS011;52970;46.752;17.108;2022-08-19T05:24:08;6.63;;;3.15;;
13102;SDS011;52970;46.752;17.108;2022-08-19T05:26:37;7.28;;;3.10;;
13102;SDS011;52970;46.752;17.108;2022-08-19T05:29:03;7.53;;;3.60;;
13102;SDS011;52970;46.752;17.108;2022-08-19T05:31:29;9.48;;;3.75;;
13102;SDS011;52970;46.752;17.108;2022-08-19T05:33:54;9.77;;;3.47;;
13102;SDS011;52970;46.752;17.108;2022-08-19T05:36:23;9.32;;;3.67;;
13102;SDS011;52970;46.752;17.108;2022-08-19T05:38:48;7.70;;;3.17;;
13102;SDS011;52970;46.752;17.108;2022-08-19T05:41:14;8.25;;;3.00;;
13102;SDS011;52970;46.752;17.108;2022-08-19T05:43:42;8.35;;;3.80;;
13102;SDS011;52970;46.752;17.108;2022-08-19T05:46:07;8.38;;;3.03;;
13102;SDS011;52970;46.752;17.108;2022-08-19T05:48:33;8.23;;;3.10;;
13102;SDS011;52970;46.752;17.108;2022-08-19T05:51:03;14.55;;;3.95;;
13102;SDS011;52970;46.752;17.108;2022-08-19T05:53:28;7.22;;;3.30;;
13102;SDS011;52970;46.752;17.108;2022-08-19T05:55:54;7.63;;;3.78;;
13102;SDS011;52970;46.752;17.108;2022-08-19T05:58:19;6.65;;;3.50;;
13102;SDS011;52970;46.752;17.108;2022-08-19T06:00:44;4.78;;;3.30;;
13102;SDS011;52970;46.752;17.108;2022-08-19T06:03:10;7.05;;;3.75;;
13102;SDS011;52970;46.752;17.108;2022-08-19T06:05:35;7.38;;;3.08;;
13102;SDS011;52970;46.752;17.108;2022-08-19T06:08:00;6.75;;;3.40;;
13102;SDS011;52970;46.752;17.108;2022-08-19T06:10:26;7.15;;;3.33;;
13102;SDS011;52970;46.752;17.108;2022-08-19T06:12:52;4.65;;;3.45;;
13102;SDS011;52970;46.752;17.108;2022-08-19T06:15:17;6.93;;;3.38;;
13102;SDS011;52970;46.752;17.108;2022-08-19T06:17:43;11.55;;;3.80;;
13102;SDS011;52970;46.752;17.108;2022-08-19T06:20:11;6.95;;;3.33;;
13102;SDS011;52970;46.752;17.108;2022-08-19T06:22:43;5.85;;;3.35;;
13102;SDS011;52970;46.752;17.108;2022-08-19T06:25:09;8.80;;;3.20;;
13102;SDS011;52970;46.752;17.108;2022-08-19T06:27:35;10.68;;;3.67;;
13102;SDS011;52970;46.752;17.108;2022-08-19T06:30:01;6.05;;;3.30;;
13102;SDS011;52970;46.752;17.108;2022-08-19T06:32:26;9.00;;;3.17;;
13102;SDS011;52970;46.752;17.108;2022-08-19T06:34:51;7.47;;;3.38;;
13102;SDS011;52970;46.752;17.108;2022-08-19T06:37:17;7.80;;;3.38;;
13102;SDS011;52970;46.752;17.108;2022-08-19T06:39:42;10.10;;;3.33;;
13102;SDS011;52970;46.752;17.108;2022-08-19T06:42:08;11.32;;;3.75;;
13102;SDS011;52970;46.752;17.108;2022-08-19T06:44:36;8.23;;;3.95;;
13102;SDS011;52970;46.752;17.108;2022-08-19T06:47:03;8.73;;;3.72;;
13102;SDS011;52970;46.752;17.108;2022-08-19T06:49:29;10.45;;;4.18;;
13102;SDS011;52970;46.752;17.108;2022-08-19T06:51:56;7.38;;;3.70;;
13102;SDS011;52970;46.752;17.108;2022-08-19T06:54:22;8.68;;;3.90;;
13102;SDS011;52970;46.752;17.108;2022-08-19T06:56:48;6.15;;;3.38;;
13102;SDS011;52970;46.752;17.108;2022-08-19T06:59:14;7.88;;;3.38;;
13102;SDS011;52970;46.752;17.108;2022-08-19T07:01:42;6.95;;;3.90;;
13102;SDS011;52970;46.752;17.108;2022-08-19T07:04:09;6.47;;;3.33;;
13102;SDS011;52970;46.752;17.108;2022-08-19T07:06:35;7.68;;;4.10;;
13102;SDS011;52970;46.752;17.108;2022-08-19T07:09:00;7.82;;;3.72;;
13102;SDS011;52970;46.752;17.108;2022-08-19T07:11:25;10.30;;;4.18;;
13102;SDS011;52970;46.752;17.108;2022-08-19T07:13:51;8.38;;;3.95;;
13102;SDS011;52970;46.752;17.108;2022-08-19T07:16:18;8.95;;;4.97;;
13102;SDS011;52970;46.752;17.108;2022-08-19T07:18:45;11.57;;;5.50;;
13102;SDS011;52970;46.752;17.108;2022-08-19T07:21:15;8.23;;;5.38;;
13102;SDS011;52970;46.752;17.108;2022-08-19T07:23:41;11.80;;;5.47;;
13102;SDS011;52970;46.752;17.108;2022-08-19T07:28:32;9.90;;;5.07;;
13102;SDS011;52970;46.752;17.108;2022-08-19T07:30:57;8.93;;;5.20;;
13102;SDS011;52970;46.752;17.108;2022-08-19T07:33:23;5.03;;;4.07;;
13102;SDS011;52970;46.752;17.108;2022-08-19T07:35:48;9.35;;;5.15;;
13102;SDS011;52970;46.752;17.108;2022-08-19T07:38:15;9.07;;;4.78;;
13102;SDS011;52970;46.752;17.108;2022-08-19T07:40:40;11.15;;;4.90;;
13102;SDS011;52970;46.752;17.108;2022-08-19T07:43:06;10.13;;;5.75;;
13102;SDS011;52970;46.752;17.108;2022-08-19T07:45:31;11.32;;;5.53;;
13102;SDS011;52970;46.752;17.108;2022-08-19T07:47:57;11.65;;;5.07;;
13102;SDS011;52970;46.752;17.108;2022-08-19T07:50:22;8.23;;;4.78;;
13102;SDS011;52970;46.752;17.108;2022-08-19T07:52:48;14.73;;;5.30;;
13102;SDS011;52970;46.752;17.108;2022-08-19T07:55:16;10.02;;;5.00;;
13102;SDS011;52970;46.752;17.108;2022-08-19T07:57:41;9.80;;;5.32;;
13102;SDS011;52970;46.752;17.108;2022-08-19T08:00:07;8.38;;;4.78;;
13102;SDS011;52970;46.752;17.108;2022-08-19T08:02:32;12.20;;;5.13;;
13102;SDS011;52970;46.752;17.108;2022-08-19T08:04:57;7.22;;;4.10;;
13102;SDS011;52970;46.752;17.108;2022-08-19T08:07:41;8.25;;;4.43;;
13102;SDS011;52970;46.752;17.108;2022-08-19T08:10:25;7.57;;;4.40;;
13102;SDS011;52970;46.752;17.108;2022-08-19T08:12:50;8.93;;;4.07;;
13102;SDS011;52970;46.752;17.108;2022-08-19T08:15:16;10.43;;;4.32;;
13102;SDS011;52970;46.752;17.108;2022-08-19T08:17:42;13.15;;;4.03;;
13102;SDS011;52970;46.752;17.108;2022-08-19T08:20:07;8.38;;;3.90;;
13102;SDS011;52970;46.752;17.108;2022-08-19T08:22:33;8.80;;;3.80;;
13102;SDS011;52970;46.752;17.108;2022-08-19T08:25:19;6.15;;;4.00;;
13102;SDS011;52970;46.752;17.108;2022-08-19T08:27:45;7.78;;;4.20;;
13102;SDS011;52970;46.752;17.108;2022-08-19T08:30:15;6.55;;;3.42;;
13102;SDS011;52970;46.752;17.108;2022-08-19T08:32:41;7.13;;;3.50;;
13102;SDS011;52970;46.752;17.108;2022-08-19T08:35:08;7.00;;;3.80;;
13102;SDS011;52970;46.752;17.108;2022-08-19T08:37:34;6.18;;;3.80;;
13102;SDS011;52970;46.752;17.108;2022-08-19T08:40:02;7.18;;;3.63;;
13102;SDS011;52970;46.752;17.108;2022-08-19T08:42:30;8.32;;;3.70;;
13102;SDS011;52970;46.752;17.108;2022-08-19T08:47:22;8.27;;;3.47;;
13102;SDS011;52970;46.752;17.108;2022-08-19T08:49:54;6.95;;;3.40;;
13102;SDS011;52970;46.752;17.108;2022-08-19T08:52:22;8.45;;;3.20;;
13102;SDS011;52970;46.752;17.108;2022-08-19T08:54:49;5.80;;;3.40;;
13102;SDS011;52970;46.752;17.108;2022-08-19T08:57:37;7.80;;;3.80;;
13102;SDS011;52970;46.752;17.108;2022-08-19T09:00:02;9.05;;;3.30;;
13102;SDS011;52970;46.752;17.108;2022-08-19T09:02:30;7.10;;;3.25;;
13102;SDS011;52970;46.752;17.108;2022-08-19T09:04:55;8.50;;;3.60;;
13102;SDS011;52970;46.752;17.108;2022-08-19T09:07:42;25.98;;;5.10;;
13102;SDS011;52970;46.752;17.108;2022-08-19T09:10:23;7.85;;;3.78;;
13102;SDS011;52970;46.752;17.108;2022-08-19T09:15:31;7.47;;;3.58;;
13102;SDS011;52970;46.752;17.108;2022-08-19T09:18:00;5.55;;;3.40;;
13102;SDS011;52970;46.752;17.108;2022-08-19T09:20:30;5.78;;;3.50;;
13102;SDS011;52970;46.752;17.108;2022-08-19T09:22:56;8.60;;;3.72;;
13102;SDS011;52970;46.752;17.108;2022-08-19T09:25:22;7.30;;;4.20;;
13102;SDS011;52970;46.752;17.108;2022-08-19T09:27:48;7.43;;;3.35;;
13102;SDS011;52970;46.752;17.108;2022-08-19T09:30:15;7.20;;;3.20;;
13102;SDS011;52970;46.752;17.108;2022-08-19T09:32:42;6.72;;;3.45;;
13102;SDS011;52970;46.752;17.108;2022-08-19T09:35:08;5.90;;;3.42;;
13102;SDS011;52970;46.752;17.108;2022-08-19T09:37:33;7.75;;;3.50;;
13102;SDS011;52970;46.752;17.108;2022-08-19T09:39:58;6.65;;;3.35;;
13102;SDS011;52970;46.752;17.108;2022-08-19T09:42:23;8.25;;;3.30;;
13102;SDS011;52970;46.752;17.108;2022-08-19T09:44:49;5.78;;;3.05;;
13102;SDS011;52970;46.752;17.108;2022-08-19T09:47:14;7.45;;;3.55;;
13102;SDS011;52970;46.752;17.108;2022-08-19T09:49:40;8.50;;;3.25;;
13102;SDS011;52970;46.752;17.108;2022-08-19T09:52:06;6.18;;;2.85;;
13102;SDS011;52970;46.752;17.108;2022-08-19T09:54:32;10.63;;;2.95;;
13102;SDS011;52970;46.752;17.108;2022-08-19T09:56:58;8.80;;;3.83;;
13102;SDS011;52970;46.752;17.108;2022-08-19T09:59:23;12.13;;;3.47;;
13102;SDS011;52970;46.752;17.108;2022-08-19T10:01:48;9.60;;;3.92;;
13102;SDS011;52970;46.752;17.108;2022-08-19T10:04:14;10.43;;;3.80;;
13102;SDS011;52970;46.752;17.108;2022-08-19T10:06:40;8.00;;;3.55;;
13102;SDS011;52970;46.752;17.108;2022-08-19T10:09:07;7.60;;;3.65;;
13102;SDS011;52970;46.752;17.108;2022-08-19T10:11:34;9.85;;;3.97;;
13102;SDS011;52970;46.752;17.108;2022-08-19T10:14:02;7.85;;;3.60;;
13102;SDS011;52970;46.752;17.108;2022-08-19T10:16:30;10.38;;;3.47;;
13102;SDS011;52970;46.752;17.108;2022-08-19T10:18:55;9.77;;;3.65;;
13102;SDS011;52970;46.752;17.108;2022-08-19T10:21:26;16.95;;;4.25;;
13102;SDS011;52970;46.752;17.108;2022-08-19T10:23:53;7.82;;;3.20;;
13102;SDS011;52970;46.752;17.108;2022-08-19T10:26:21;7.35;;;3.33;;
13102;SDS011;52970;46.752;17.108;2022-08-19T10:28:46;5.65;;;3.30;;
13102;SDS011;52970;46.752;17.108;2022-08-19T10:31:13;8.50;;;3.33;;
13102;SDS011;52970;46.752;17.108;2022-08-19T10:33:39;9.20;;;3.40;;
13102;SDS011;52970;46.752;17.108;2022-08-19T10:36:07;9.52;;;3.60;;
13102;SDS011;52970;46.752;17.108;2022-08-19T10:38:33;24.73;;;4.40;;
13102;SDS011;52970;46.752;17.108;2022-08-19T10:41:06;77.88;;;9.70;;
13102;SDS011;52970;46.752;17.108;2022-08-19T10:43:31;24.92;;;5.68;;
13102;SDS011;52970;46.752;17.108;2022-08-19T10:46:01;23.42;;;5.25;;
13102;SDS011;52970;46.752;17.108;2022-08-19T10:48:27;59.65;;;8.57;;
13102;SDS011;52970;46.752;17.108;2022-08-19T10:50:52;22.55;;;4.15;;
13102;SDS011;52970;46.752;17.108;2022-08-19T10:53:36;10.18;;;3.75;;
13102;SDS011;52970;46.752;17.108;2022-08-19T10:56:01;11.90;;;3.80;;
13102;SDS011;52970;46.752;17.108;2022-08-19T10:58:45;7.68;;;4.05;;
13102;SDS011;52970;46.752;17.108;2022-08-19T11:01:11;10.55;;;3.90;;
13102;SDS011;52970;46.752;17.108;2022-08-19T11:03:36;12.27;;;3.70;;
13102;SDS011;52970;46.752;17.108;2022-08-19T11:06:02;10.02;;;3.75;;
13102;SDS011;52970;46.752;17.108;2022-08-19T11:08:28;9.23;;;4.30;;
13102;SDS011;52970;46.752;17.108;2022-08-19T11:10:55;13.00;;;3.58;;
13102;SDS011;52970;46.752;17.108;2022-08-19T11:13:24;10.00;;;3.63;;
13102;SDS011;52970;46.752;17.108;2022-08-19T11:16:02;8.25;;;3.42;;
13102;SDS011;52970;46.752;17.108;2022-08-19T11:18:28;9.00;;;3.47;;
13102;SDS011;52970;46.752;17.108;2022-08-19T11:20:53;7.75;;;3.50;;
13102;SDS011;52970;46.752;17.108;2022-08-19T11:23:19;9.70;;;3.85;;
13102;SDS011;52970;46.752;17.108;2022-08-19T11:25:44;11.43;;;4.05;;
13102;SDS011;52970;46.752;17.108;2022-08-19T11:28:10;9.32;;;3.70;;
13102;SDS011;52970;46.752;17.108;2022-08-19T11:30:36;10.27;;;4.03;;
13102;SDS011;52970;46.752;17.108;2022-08-19T11:33:02;7.22;;;3.92;;
13102;SDS011;52970;46.752;17.108;2022-08-19T11:35:27;7.47;;;3.28;;
13102;SDS011;52970;46.752;17.108;2022-08-19T11:37:53;7.30;;;3.40;;
13102;SDS011;52970;46.752;17.108;2022-08-19T11:40:18;9.40;;;3.78;;
13102;SDS011;52970;46.752;17.108;2022-08-19T11:42:43;14.48;;;4.07;;
13102;SDS011;52970;46.752;17.108;2022-08-19T11:45:25;10.57;;;4.20;;
13102;SDS011;52970;46.752;17.108;2022-08-19T11:47:51;9.43;;;3.80;;
13102;SDS011;52970;46.752;17.108;2022-08-19T11:50:17;11.52;;;3.97;;
13102;SDS011;52970;46.752;17.108;2022-08-19T11:52:42;12.38;;;3.38;;
13102;SDS011;52970;46.752;17.108;2022-08-19T11:55:09;19.75;;;5.53;;
13102;SDS011;52970;46.752;17.108;2022-08-19T11:57:35;12.32;;;3.65;;
13102;SDS011;52970;46.752;17.108;2022-08-19T12:00:00;6.53;;;3.42;;
13102;SDS011;52970;46.752;17.108;2022-08-19T12:02:26;12.15;;;4.00;;
13102;SDS011;52970;46.752;17.108;2022-08-19T12:04:51;11.73;;;3.80;;
13102;SDS011;52970;46.752;17.108;2022-08-19T12:07:17;11.35;;;3.88;;
13102;SDS011;52970;46.752;17.108;2022-08-19T12:09:42;10.27;;;4.05;;
13102;SDS011;52970;46.752;17.108;2022-08-19T12:12:08;12.50;;;3.67;;
13102;SDS011;52970;46.752;17.108;2022-08-19T12:14:34;8.63;;;3.70;;
13102;SDS011;52970;46.752;17.108;2022-08-19T12:17:00;11.80;;;3.92;;
13102;SDS011;52970;46.752;17.108;2022-08-19T12:19:26;20.73;;;4.15;;
13102;SDS011;52970;46.752;17.108;2022-08-19T12:21:53;10.05;;;3.60;;
13102;SDS011;52970;46.752;17.108;2022-08-19T12:24:24;15.88;;;4.30;;
13102;SDS011;52970;46.752;17.108;2022-08-19T12:26:50;17.45;;;4.28;;
13102;SDS011;52970;46.752;17.108;2022-08-19T12:29:16;11.48;;;3.88;;
13102;SDS011;52970;46.752;17.108;2022-08-19T12:31:41;9.05;;;3.15;;
13102;SDS011;52970;46.752;17.108;2022-08-19T12:34:06;11.75;;;3.95;;
13102;SDS011;52970;46.752;17.108;2022-08-19T12:36:32;13.65;;;3.80;;
13102;SDS011;52970;46.752;17.108;2022-08-19T12:38:58;13.45;;;4.30;;
13102;SDS011;52970;46.752;17.108;2022-08-19T12:41:24;13.93;;;3.88;;
13102;SDS011;52970;46.752;17.108;2022-08-19T12:43:50;8.05;;;3.80;;
13102;SDS011;52970;46.752;17.108;2022-08-19T12:46:15;10.73;;;3.50;;
13102;SDS011;52970;46.752;17.108;2022-08-19T12:48:41;13.23;;;4.30;;
13102;SDS011;52970;46.752;17.108;2022-08-19T12:51:07;14.02;;;4.13;;
13102;SDS011;52970;46.752;17.108;2022-08-19T12:53:33;11.93;;;4.10;;
13102;SDS011;52970;46.752;17.108;2022-08-19T12:55:58;12.65;;;4.13;;
13102;SDS011;52970;46.752;17.108;2022-08-19T12:58:24;12.75;;;4.22;;
13102;SDS011;52970;46.752;17.108;2022-08-19T13:00:50;15.23;;;4.55;;
13102;SDS011;52970;46.752;17.108;2022-08-19T13:03:15;12.18;;;4.20;;
13102;SDS011;52970;46.752;17.108;2022-08-19T13:05:41;10.23;;;3.75;;
13102;SDS011;52970;46.752;17.108;2022-08-19T13:08:06;11.10;;;3.70;;
13102;SDS011;52970;46.752;17.108;2022-08-19T13:10:32;11.65;;;3.97;;
13102;SDS011;52970;46.752;17.108;2022-08-19T13:13:00;10.57;;;4.25;;
13102;SDS011;52970;46.752;17.108;2022-08-19T13:15:26;8.73;;;3.78;;
13102;SDS011;52970;46.752;17.108;2022-08-19T13:17:53;10.60;;;4.10;;
13102;SDS011;52970;46.752;17.108;2022-08-19T13:20:19;12.80;;;4.47;;
13102;SDS011;52970;46.752;17.108;2022-08-19T13:22:45;9.50;;;4.07;;
13102;SDS011;52970;46.752;17.108;2022-08-19T13:25:11;13.10;;;4.10;;
13102;SDS011;52970;46.752;17.108;2022-08-19T13:27:37;11.68;;;4.05;;
13102;SDS011;52970;46.752;17.108;2022-08-19T13:30:03;11.32;;;3.45;;
13102;SDS011;52970;46.752;17.108;2022-08-19T13:32:47;9.75;;;3.17;;
13102;SDS011;52970;46.752;17.108;2022-08-19T13:35:31;13.38;;;3.78;;
13102;SDS011;52970;46.752;17.108;2022-08-19T13:37:56;11.60;;;4.18;;
13102;SDS011;52970;46.752;17.108;2022-08-19T13:40:23;12.52;;;3.90;;
13102;SDS011;52970;46.752;17.108;2022-08-19T13:42:49;10.30;;;4.20;;
13102;SDS011;52970;46.752;17.108;2022-08-19T13:45:22;10.43;;;4.00;;
13102;SDS011;52970;46.752;17.108;2022-08-19T13:47:49;10.95;;;4.53;;
13102;SDS011;52970;46.752;17.108;2022-08-19T13:50:16;10.68;;;4.15;;
13102;SDS011;52970;46.752;17.108;2022-08-19T13:52:42;10.82;;;3.53;;
13102;SDS011;52970;46.752;17.108;2022-08-19T13:55:09;14.43;;;4.05;;
13102;SDS011;52970;46.752;17.108;2022-08-19T13:57:34;13.52;;;4.25;;
13102;SDS011;52970;46.752;17.108;2022-08-19T14:00:01;11.55;;;4.50;;
13102;SDS011;52970;46.752;17.108;2022-08-19T14:02:27;11.80;;;4.30;;
13102;SDS011;52970;46.752;17.108;2022-08-19T14:04:53;13.27;;;4.22;;
13102;SDS011;52970;46.752;17.108;2022-08-19T14:07:18;11.75;;;3.80;;
13102;SDS011;52970;46.752;17.108;2022-08-19T14:09:43;8.65;;;3.85;;
13102;SDS011;52970;46.752;17.108;2022-08-19T14:12:09;12.50;;;4.05;;
13102;SDS011;52970;46.752;17.108;2022-08-19T14:14:37;9.05;;;3.42;;
13102;SDS011;52970;46.752;17.108;2022-08-19T14:17:06;10.45;;;3.70;;
13102;SDS011;52970;46.752;17.108;2022-08-19T14:19:32;13.10;;;3.63;;
13102;SDS011;52970;46.752;17.108;2022-08-19T14:21:57;8.07;;;3.70;;
13102;SDS011;52970;46.752;17.108;2022-08-19T14:24:23;10.52;;;4.15;;
13102;SDS011;52970;46.752;17.108;2022-08-19T14:26:48;12.85;;;4.05;;
13102;SDS011;52970;46.752;17.108;2022-08-19T14:29:13;12.73;;;3.83;;
13102;SDS011;52970;46.752;17.108;2022-08-19T14:31:39;12.48;;;3.63;;
13102;SDS011;52970;46.752;17.108;2022-08-19T14:34:07;12.20;;;4.38;;
13102;SDS011;52970;46.752;17.108;2022-08-19T14:36:32;13.07;;;4.20;;
13102;SDS011;52970;46.752;17.108;2022-08-19T14:38:59;13.65;;;4.28;;